Terminal Aerodrome Forecast
Issued by NWS

Home | Current Version | Previous Version | Text Only | Print | Product List | Glossary On
Versions: 1 2 3 4 5 6 7 8 9 10 11 12 13 14
000
FTUS41 KLWX 011942 AAA
TAFMTN
TAF AMD
KMTN 011942Z 0120/0218 17005KT 2SM -FZRA BR BKN008 OVC020
     FM020100 VRB04KT 5SM BR BKN003 OVC020
     FM021200 31008KT P6SM SCT003 BKN050
     FM021400 30012G25KT P6SM SCT050=

USA.gov is the U.S. government's official web portal to all federal, state and local government web resources and services.